CheckWX is a tool to help pilots better visualize weather data.  It is not intended as a substitute for an official pre-flight weather briefing.

18:20:03 UTC

KOXR METAR
Oxnard Airport
Oxnard, California, USA
Current

29 mins ago

KOXR 201751Z 00000KT 10SM CLR 17/07 A3011 RMK AO2 SLP198 T01720067 10172 20061 50015
Observed
Feb-20 @ 17:51 UTC
Visibility
10 SM
Flight Rules
VFR
Cloud Levels
  • Clear skies
Temperature
17°C / 63°F
Dewpoint
C / 45°F
Humidity
52%
Altimeter
30.11" Hg
Pressure
1019.62 hPa
Previous

1 hour ago

KOXR 201651Z 35004KT 10SM CLR 14/05 A3013 RMK AO2 SLP202 T01440050
Observed
Feb-20 @ 16:51 UTC
Wind
  • 350° at 4 KTS
Visibility
10 SM
Flight Rules
VFR
Cloud Levels
  • Clear skies
Temperature
14°C / 57°F
Dewpoint
C / 41°F
Humidity
55%
Altimeter
30.13" Hg
Pressure
1020.32 hPa
Previous

2 hours ago

KOXR 201551Z 00000KT 10SM CLR 11/02 A3010 RMK AO2 SLP192 T01060022
Observed
Feb-20 @ 15:51 UTC
Visibility
10 SM
Flight Rules
VFR
Cloud Levels
  • Clear skies
Temperature
11°C / 52°F
Dewpoint
C / 36°F
Humidity
54%
Altimeter
30.1" Hg
Pressure
1019.32 hPa